Time;durP1;ratioP1;P1;durP2;ratioP2;P2;SDS_P1;SDS_P2;PMS_P1;PMS_P2;Temp;Humidity;BMP_temperature;BMP_pressure;BME280_temperature;BME280_humidity;BME280_pressure;Samples;Min_cycle;Max_cycle;Signal;HPM_P1;HPM_P2
2023/01/14 05:22:32;;;;;;;6.93;2.20;;;;;;;6.62;94.96;100529.44;5109101;27;20327;-68
2023/01/14 05:24:58;;;;;;;11.77;1.75;;;;;;;6.62;95.40;100519.66;5109293;28;20069;-69
2023/01/14 05:27:23;;;;;;;3.80;1.52;;;;;;;6.64;94.83;100515.06;5108862;28;20036;-70
2023/01/14 05:29:48;;;;;;;2.40;1.17;;;;;;;6.63;94.85;100513.38;5109197;28;20054;-68
2023/01/14 05:32:14;;;;;;;6.38;1.60;;;;;;;6.68;94.93;100502.38;5109047;28;20043;-69
2023/01/14 05:34:40;;;;;;;10.15;1.52;;;;;;;6.69;94.93;100504.88;5108256;28;20107;-69
2023/01/14 05:37:06;;;;;;;12.55;1.40;;;;;;;6.65;95.09;100511.47;5108884;28;20582;-70
2023/01/14 05:39:31;;;;;;;10.60;2.00;;;;;;;6.68;95.04;100508.53;5108921;28;20096;-69
2023/01/14 05:47:24;;;;;;;2.95;1.50;;;;;;;6.71;94.68;100491.50;5108567;28;20035;-69
2023/01/14 05:49:50;;;;;;;2.63;1.50;;;;;;;6.68;94.81;100487.34;5108876;28;20513;-69
2023/01/14 05:52:15;;;;;;;4.28;1.45;;;;;;;6.71;94.65;100481.75;5107312;28;20507;-69
2023/01/14 05:54:40;;;;;;;6.45;1.42;;;;;;;6.74;94.26;100478.81;5108643;28;20047;-69
2023/01/14 05:57:11;;;;;;;8.38;1.50;;;;;;;6.75;94.25;100477.00;5108382;28;20032;-69
2023/01/14 05:59:36;;;;;;;6.47;1.63;;;;;;;6.74;94.79;100489.41;5108788;28;20385;-70
2023/01/14 06:07:30;;;;;;;3.25;1.77;;;;;;;6.76;93.96;100482.16;5107816;28;20397;-69
2023/01/14 06:09:55;;;;;;;6.38;1.40;;;;;;;6.75;94.18;100475.19;5108397;28;20047;-70
2023/01/14 06:12:36;;;;;;;14.02;1.55;;;;;;;6.82;93.76;100478.09;5108248;28;20119;-70
2023/01/14 06:15:01;;;;;;;12.25;1.55;;;;;;;6.77;93.74;100475.03;5108422;28;20499;-68
2023/01/14 06:17:34;;;;;;;2.83;1.15;;;;;;;6.76;93.99;100468.91;5106693;28;20055;-68
2023/01/14 06:20:00;;;;;;;9.25;1.48;;;;;;;6.75;94.13;100469.91;5108172;28;20032;-68
2023/01/14 06:22:25;;;;;;;6.80;1.30;;;;;;;6.79;93.74;100467.81;5106721;28;20080;-70
2023/01/14 06:24:51;;;;;;;8.90;1.60;;;;;;;6.78;93.89;100464.34;5108012;28;20040;-69
2023/01/14 06:27:16;;;;;;;8.88;1.42;;;;;;;6.82;93.86;100458.75;5107807;28;20052;-68
2023/01/14 06:29:41;;;;;;;3.28;1.52;;;;;;;6.82;93.96;100462.22;5108112;28;20081;-68
2023/01/14 06:32:07;;;;;;;10.57;2.58;;;;;;;6.83;93.86;100453.28;5104325;28;20134;-70
2023/01/14 06:34:32;;;;;;;6.90;1.67;;;;;;;6.84;94.09;100456.78;5094397;28;20032;-69
2023/01/14 06:36:57;;;;;;;4.15;1.23;;;;;;;6.91;94.02;100455.22;5094088;28;20119;-69
2023/01/14 06:39:23;;;;;;;5.85;1.33;;;;;;;6.91;93.76;100445.47;5091063;28;20044;-70
2023/01/14 06:41:48;;;;;;;11.48;1.70;;;;;;;6.98;93.23;100445.75;5083820;28;20402;-69
2023/01/14 06:44:17;;;;;;;2.35;1.02;;;;;;;6.97;93.36;100428.16;5084711;28;20074;-68
2023/01/14 06:46:42;;;;;;;4.40;1.45;;;;;;;7.03;93.19;100430.22;5083120;28;20447;-69
2023/01/14 06:49:07;;;;;;;6.40;1.40;;;;;;;7.02;93.42;100425.91;5083249;28;20162;-69
2023/01/14 06:51:33;;;;;;;6.03;1.00;;;;;;;6.95;92.35;100416.88;5084654;28;20044;-68
2023/01/14 06:54:01;;;;;;;3.78;1.20;;;;;;;6.88;93.02;100426.38;5082816;28;20036;-69
2023/01/14 06:56:26;;;;;;;5.70;1.27;;;;;;;6.82;93.59;100419.03;5082265;28;20081;-69
2023/01/14 06:58:52;;;;;;;4.72;0.95;;;;;;;6.78;94.16;100414.03;5082663;28;20033;-69
2023/01/14 07:01:21;;;;;;;10.65;1.50;;;;;;;6.80;94.25;100405.94;5082209;28;20381;-68
2023/01/14 07:03:46;;;;;;;4.03;1.27;;;;;;;6.77;94.39;100388.50;5083472;28;20213;-68
2023/01/14 07:06:12;;;;;;;3.75;0.98;;;;;;;6.77;94.12;100380.56;5082712;28;20382;-70
2023/01/14 07:08:37;;;;;;;6.78;1.65;;;;;;;6.76;94.36;100376.25;5086502;28;20040;-70
2023/01/14 07:11:03;;;;;;;3.17;1.80;;;;;;;6.76;94.46;100372.78;5093784;28;20123;-68
2023/01/14 07:13:29;;;;;;;7.18;1.60;;;;;;;6.76;94.93;100368.31;5093812;28;20128;-69
2023/01/14 07:15:55;;;;;;;8.18;1.58;;;;;;;6.79;94.94;100367.19;5093624;28;20118;-69
2023/01/14 07:18:21;;;;;;;7.93;1.38;;;;;;;6.83;95.66;100367.72;5093303;28;20126;-69
2023/01/14 07:20:46;;;;;;;8.70;2.03;;;;;;;6.82;96.04;100366.06;5093402;28;20480;-70
2023/01/14 07:23:11;;;;;;;0.63;0.60;;;;;;;6.94;94.97;100370.19;5093512;28;20036;-68
2023/01/14 07:25:39;;;;;;;3.05;0.80;;;;;;;7.04;94.48;100365.66;5093458;28;20043;-69
2023/01/14 07:28:04;;;;;;;5.38;1.40;;;;;;;7.17;93.74;100350.28;5093122;28;20067;-68
2023/01/14 07:30:30;;;;;;;4.72;1.85;;;;;;;7.20;93.53;100365.88;5093313;28;20036;-69
2023/01/14 07:32:59;;;;;;;5.75;1.35;;;;;;;7.29;93.42;100361.47;5093296;28;20040;-68
2023/01/14 07:35:26;;;;;;;4.93;1.33;;;;;;;7.35;93.44;100374.97;5091909;28;20050;-68
2023/01/14 07:37:58;;;;;;;5.93;1.45;;;;;;;7.40;93.17;100373.69;5092977;28;20044;-67
2023/01/14 07:40:25;;;;;;;10.73;1.60;;;;;;;7.54;92.55;100383.78;5093353;28;20123;-66
2023/01/14 07:42:58;;;;;;;7.45;1.60;;;;;;;7.56;92.60;100379.16;5093213;28;20036;-67
2023/01/14 07:45:24;;;;;;;4.68;1.38;;;;;;;7.62;93.13;100376.72;5092011;28;20496;-67
2023/01/14 07:47:50;;;;;;;5.25;1.70;;;;;;;7.70;92.28;100367.22;5092858;28;20039;-67
2023/01/14 07:50:16;;;;;;;1.90;1.10;;;;;;;7.78;91.52;100368.13;5092903;28;20512;-67
2023/01/14 07:52:41;;;;;;;1.85;0.90;;;;;;;7.82;91.57;100371.28;5091668;28;20074;-58
2023/01/14 07:55:07;;;;;;;9.43;1.00;;;;;;;7.89;91.97;100361.75;5092808;28;20481;-59
2023/01/14 07:57:32;;;;;;;4.10;0.98;;;;;;;7.98;91.49;100349.38;5092486;28;20036;-56
2023/01/14 07:59:58;;;;;;;3.92;0.93;;;;;;;8.03;91.59;100358.56;5092726;28;20032;-61
2023/01/14 08:02:23;;;;;;;4.03;0.90;;;;;;;8.08;91.14;100356.25;5092979;28;20032;-59
2023/01/14 08:04:48;;;;;;;1.90;0.80;;;;;;;8.18;90.49;100344.72;5092954;28;20042;-67
2023/01/14 08:07:14;;;;;;;1.23;1.00;;;;;;;8.23;90.67;100342.44;5092199;28;20047;-67
2023/01/14 08:09:39;;;;;;;3.13;0.98;;;;;;;8.24;90.47;100352.06;5092618;28;20111;-67
2023/01/14 08:12:05;;;;;;;3.20;1.13;;;;;;;8.26;91.22;100339.47;5092511;28;20044;-67
2023/01/14 08:14:30;;;;;;;1.35;0.70;;;;;;;8.29;90.97;100337.34;5092391;28;20039;-67
2023/01/14 08:16:56;;;;;;;1.35;1.05;;;;;;;8.35;90.89;100333.22;5092361;28;20036;-67
2023/01/14 08:19:21;;;;;;;0.77;0.65;;;;;;;8.40;90.10;100331.78;5092189;28;20136;-67
2023/01/14 08:21:47;;;;;;;1.48;0.85;;;;;;;8.41;90.49;100320.19;5092253;28;20435;-67
2023/01/14 08:24:12;;;;;;;2.33;1.45;;;;;;;8.50;90.62;100328.19;5092387;28;20044;-67
2023/01/14 08:26:38;;;;;;;6.03;1.95;;;;;;;8.52;90.32;100318.25;5092173;28;20036;-67
2023/01/14 08:29:04;;;;;;;2.28;0.98;;;;;;;8.62;90.26;100324.28;5092014;28;20077;-67
2023/01/14 08:31:29;;;;;;;2.35;1.27;;;;;;;8.69;90.02;100318.16;5092117;28;20529;-67
2023/01/14 08:33:55;;;;;;;4.95;1.42;;;;;;;8.75;88.66;100308.75;5092148;28;20036;-67
2023/01/14 08:36:20;;;;;;;5.30;1.10;;;;;;;8.89;88.12;100308.13;5091743;28;20044;-66
2023/01/14 08:38:50;;;;;;;2.17;1.00;;;;;;;8.90;88.35;100301.81;5091736;28;20558;-65
2023/01/14 08:41:16;;;;;;;1.30;0.63;;;;;;;8.94;88.41;100292.53;5092696;28;20042;-64
2023/01/14 08:43:42;;;;;;;0.82;0.55;;;;;;;9.03;87.61;100298.69;5092385;28;20040;-65
2023/01/14 08:46:10;;;;;;;2.17;0.70;;;;;;;9.05;87.29;100288.72;5092154;28;20050;-66
2023/01/14 08:48:36;;;;;;;0.98;0.60;;;;;;;9.08;86.91;100295.56;5092743;28;20039;-66
2023/01/14 08:51:04;;;;;;;0.50;0.50;;;;;;;9.10;86.96;100291.75;5092120;28;20500;-64
2023/01/14 08:53:31;;;;;;;1.73;0.95;;;;;;;9.15;86.69;100285.94;5092156;28;20036;-65
2023/01/14 08:55:57;;;;;;;5.88;0.88;;;;;;;9.13;86.99;100287.94;5092167;28;20139;-66
2023/01/14 08:58:23;;;;;;;2.83;0.82;;;;;;;9.19;86.27;100284.59;5091755;28;20106;-67
2023/01/14 09:00:48;;;;;;;6.20;1.00;;;;;;;9.17;86.71;100278.63;5092108;28;20042;-66
2023/01/14 09:03:14;;;;;;;2.05;0.70;;;;;;;9.18;86.67;100277.63;5091993;28;20416;-65
2023/01/14 09:05:39;;;;;;;0.68;0.55;;;;;;;9.20;87.34;100267.69;5092027;28;20051;-65
2023/01/14 09:19:06;;;;;;;3.13;1.10;;;;;;;9.20;86.35;100265.84;5091643;28;20032;-66
2023/01/14 09:21:31;;;;;;;3.35;0.80;;;;;;;9.24;86.56;100258.38;5091667;28;20503;-65
2023/01/14 09:23:56;;;;;;;1.38;0.57;;;;;;;9.27;86.23;100255.41;5091834;28;20054;-65
2023/01/14 09:26:22;;;;;;;2.25;1.17;;;;;;;9.18;86.44;100246.56;5091692;28;20040;-66
2023/01/14 09:28:47;;;;;;;8.05;0.70;;;;;;;9.24;86.35;100259.19;5091461;28;20063;-65
2023/01/14 09:31:13;;;;;;;1.13;0.70;;;;;;;9.23;86.79;100246.91;5091539;28;20040;-66
2023/01/14 09:33:38;;;;;;;1.48;0.70;;;;;;;9.25;86.50;100257.38;5090409;28;20500;-65
2023/01/14 09:36:04;;;;;;;2.60;0.75;;;;;;;9.30;86.44;100256.88;5091538;28;20184;-66
2023/01/14 09:38:30;;;;;;;2.95;0.85;;;;;;;9.28;85.91;100259.72;5091285;28;20048;-65
2023/01/14 09:40:55;;;;;;;6.72;1.50;;;;;;;9.24;86.03;100247.75;5091620;28;20040;-65
2023/01/14 09:43:22;;;;;;;4.20;0.80;;;;;;;9.28;85.53;100227.00;5091535;28;20048;-66
2023/01/14 09:45:51;;;;;;;0.55;0.55;;;;;;;9.27;85.20;100222.69;5090321;28;20427;-66
2023/01/14 09:48:20;;;;;;;0.90;0.75;;;;;;;9.28;85.20;100203.91;5091103;28;20132;-65
2023/01/14 09:51:04;;;;;;;1.55;0.55;;;;;;;9.33;85.50;100214.03;5090187;28;20566;-67
2023/01/14 09:53:35;;;;;;;0.50;0.50;;;;;;;9.39;85.25;100219.53;5091624;28;20040;-67
2023/01/14 09:56:19;;;;;;;0.85;0.60;;;;;;;9.39;85.84;100216.00;5091373;28;20047;-66
2023/01/14 09:59:10;;;;;;;1.88;1.02;;;;;;;9.41;86.19;100214.03;5091152;28;20043;-68
2023/01/14 10:01:53;;;;;;;2.80;1.08;;;;;;;9.45;85.55;100205.56;5091528;28;20036;-68
2023/01/14 10:04:47;;;;;;;2.25;0.90;;;;;;;9.51;85.30;100196.91;5091612;28;20040;-68
2023/01/14 10:07:14;;;;;;;1.65;0.63;;;;;;;9.52;84.83;100187.94;5091321;28;20028;-66
2023/01/14 10:09:48;;;;;;;3.92;0.90;;;;;;;9.56;85.46;100187.59;5095143;28;20096;-67
2023/01/14 10:12:19;;;;;;;2.13;1.02;;;;;;;9.59;85.17;100179.28;5095084;28;20058;-68
2023/01/14 10:14:54;;;;;;;1.02;0.82;;;;;;;9.63;85.20;100167.31;5095112;28;20048;-69
2023/01/14 10:17:22;;;;;;;3.53;0.57;;;;;;;9.66;84.44;100164.31;5094687;28;20036;-68
2023/01/14 10:19:52;;;;;;;0.85;0.50;;;;;;;9.69;84.74;100161.31;5094970;28;20046;-68
2023/01/14 10:22:38;;;;;;;0.63;0.52;;;;;;;9.75;84.18;100160.63;5094653;28;20414;-69
2023/01/14 10:25:15;;;;;;;3.63;0.90;;;;;;;9.76;83.39;100149.81;5094623;28;20101;-68
2023/01/14 10:27:43;;;;;;;1.48;1.38;;;;;;;9.81;83.32;100154.63;5094606;28;20032;-68
2023/01/14 10:30:17;;;;;;;2.15;0.68;;;;;;;9.81;84.06;100145.81;5094774;28;20485;-68
2023/01/14 10:32:43;;;;;;;2.47;0.90;;;;;;;9.84;83.21;100137.50;5094692;28;20491;-68
2023/01/14 10:35:12;;;;;;;1.88;0.85;;;;;;;9.82;83.54;100134.19;5094628;28;20114;-68
2023/01/14 10:37:38;;;;;;;1.42;0.82;;;;;;;9.87;83.49;100143.31;5094183;28;20490;-68
2023/01/14 10:40:04;;;;;;;0.70;0.70;;;;;;;9.90;82.20;100126.16;5093369;28;20078;-68
2023/01/14 10:42:29;;;;;;;1.67;1.25;;;;;;;9.90;82.06;100120.84;5094522;28;20035;-68
2023/01/14 10:44:56;;;;;;;1.50;0.90;;;;;;;9.91;82.79;100106.53;5094581;28;20138;-68
2023/01/14 10:47:24;;;;;;;1.15;0.60;;;;;;;9.94;82.73;100096.38;5094317;28;20405;-68
2023/01/14 10:49:54;;;;;;;0.60;0.60;;;;;;;9.91;82.44;100095.91;5094503;28;20028;-67
2023/01/14 10:52:22;;;;;;;1.02;0.85;;;;;;;9.92;83.11;100093.09;5094362;28;20036;-67
2023/01/14 10:54:56;;;;;;;0.77;0.57;;;;;;;9.86;83.38;100085.78;5094350;28;20431;-66
2023/01/14 10:57:23;;;;;;;1.55;0.85;;;;;;;9.91;83.15;100080.78;5093941;28;20051;-67
2023/01/14 10:59:54;;;;;;;0.80;0.63;;;;;;;9.89;83.26;100076.63;5094076;28;20040;-68
2023/01/14 11:02:38;;;;;;;1.38;0.65;;;;;;;9.96;84.04;100078.41;5094532;28;20120;-67
2023/01/14 11:05:06;;;;;;;0.65;0.60;;;;;;;9.91;84.75;100067.47;5094276;28;20035;-68
2023/01/14 11:07:40;;;;;;;2.03;0.90;;;;;;;9.95;84.04;100065.28;5093740;28;20040;-67
2023/01/14 11:10:18;;;;;;;3.55;0.77;;;;;;;9.90;84.22;100063.13;5094409;28;20043;-67
2023/01/14 11:12:43;;;;;;;1.42;0.98;;;;;;;9.92;84.45;100049.69;5094347;28;20036;-68
2023/01/14 11:15:36;;;;;;;1.30;0.60;;;;;;;9.92;84.66;100047.84;5094023;28;20032;-68
2023/01/14 11:18:19;;;;;;;1.80;1.13;;;;;;;9.94;84.91;100040.50;5093765;28;20067;-68
2023/01/14 11:21:20;;;;;;;1.38;0.70;;;;;;;9.94;84.31;100037.84;5094043;28;20109;-67
2023/01/14 11:24:18;;;;;;;4.57;1.15;;;;;;;9.98;84.44;100022.38;5094112;28;20055;-68
2023/01/14 11:26:44;;;;;;;1.10;0.82;;;;;;;10.01;84.83;100020.19;5094105;28;20043;-68
2023/01/14 11:29:26;;;;;;;1.13;0.80;;;;;;;9.99;84.84;100016.88;5093984;28;20032;-68
2023/01/14 11:32:03;;;;;;;2.05;1.30;;;;;;;10.07;83.77;100000.84;5093708;28;20157;-67
2023/01/14 11:34:40;;;;;;;3.15;0.95;;;;;;;10.06;83.63;99993.06;5094450;28;20397;-68
2023/01/14 11:37:09;;;;;;;1.80;0.77;;;;;;;10.13;83.49;99987.84;5093489;28;20393;-68
2023/01/14 11:39:35;;;;;;;2.30;1.08;;;;;;;10.11;83.41;99977.41;5093544;28;20377;-68
2023/01/14 11:42:03;;;;;;;2.10;1.00;;;;;;;10.12;83.41;99970.25;5093591;28;20028;-68
2023/01/14 11:44:31;;;;;;;2.15;0.88;;;;;;;10.13;83.21;99966.56;5092437;28;20036;-69
2023/01/14 11:47:12;;;;;;;1.33;0.60;;;;;;;10.13;83.14;99950.59;5093341;28;20040;-68
2023/01/14 11:49:37;;;;;;;2.58;0.90;;;;;;;10.14;83.16;99947.75;5093491;28;20047;-68
2023/01/14 11:52:05;;;;;;;0.85;0.60;;;;;;;10.17;82.51;99941.22;5093776;28;20040;-68
2023/01/14 11:54:37;;;;;;;0.55;0.50;;;;;;;10.15;81.91;99935.28;5093341;28;20058;-68
2023/01/14 11:57:04;;;;;;;2.78;0.60;;;;;;;10.28;80.74;99922.22;5092916;28;20036;-68
2023/01/14 11:59:33;;;;;;;3.60;0.65;;;;;;;10.24;80.96;99920.94;5092936;28;20036;-69
2023/01/14 12:01:58;;;;;;;2.13;0.60;;;;;;;10.24;80.20;99915.63;5093046;28;20054;-68
2023/01/14 12:04:32;;;;;;;1.08;0.70;;;;;;;10.27;79.79;99901.94;5093082;28;20044;-69
2023/01/14 12:07:26;;;;;;;2.75;0.60;;;;;;;10.27;80.26;99892.09;5092934;28;20057;-68
2023/01/14 12:09:56;;;;;;;2.90;0.73;;;;;;;10.25;80.36;99888.81;5088553;28;20086;-68
2023/01/14 12:18:44;;;;;;;0.60;0.60;;;;;;;10.34;77.87;99857.59;5092873;28;20039;-70
2023/01/14 12:21:13;;;;;;;1.88;0.52;;;;;;;10.32;77.40;99838.34;5091572;28;20036;-70
2023/01/14 12:23:50;;;;;;;1.05;0.55;;;;;;;10.37;76.36;99843.94;5092633;28;20051;-69
2023/01/14 12:26:24;;;;;;;1.77;0.40;;;;;;;10.43;75.88;99842.38;5092758;28;20088;-69
2023/01/14 12:28:57;;;;;;;1.65;0.40;;;;;;;10.44;75.70;99836.06;5092387;28;20039;-69
2023/01/14 12:31:33;;;;;;;0.52;0.52;;;;;;;10.51;75.14;99836.97;5092291;28;20036;-69
2023/01/14 12:34:38;;;;;;;0.32;0.32;;;;;;;10.59;73.18;99829.72;5092657;28;20036;-68
2023/01/14 12:37:27;;;;;;;0.47;0.47;;;;;;;10.60;74.56;99820.72;5092277;28;20773;-68
2023/01/14 12:45:50;;;;;;;0.60;0.60;;;;;;;10.80;72.04;99810.31;5092328;28;20134;-69
2023/01/14 12:48:18;;;;;;;0.57;0.50;;;;;;;10.84;72.68;99806.28;5092145;28;20544;-68
2023/01/14 12:51:10;;;;;;;0.35;0.30;;;;;;;10.86;71.84;99795.44;5090932;28;20035;-69
2023/01/14 12:53:44;;;;;;;0.30;0.30;;;;;;;10.87;69.87;99773.94;5092211;28;20178;-68
2023/01/14 12:56:20;;;;;;;0.73;0.32;;;;;;;10.91;71.75;99769.06;5092377;28;20040;-69
2023/01/14 12:58:55;;;;;;;0.55;0.30;;;;;;;10.92;70.50;99762.72;5091962;28;20118;-69
2023/01/14 13:01:24;;;;;;;1.58;0.93;;;;;;;10.90;71.22;99758.59;5092067;28;20046;-69
2023/01/14 13:04:05;;;;;;;0.57;0.50;;;;;;;10.91;71.43;99746.94;5092000;28;20036;-68
2023/01/14 13:06:35;;;;;;;1.08;0.57;;;;;;;10.92;69.96;99730.75;5089957;28;20043;-68
2023/01/14 13:09:03;;;;;;;0.43;0.43;;;;;;;10.97;69.11;99739.00;5082158;28;20035;-68
2023/01/14 13:11:40;;;;;;;1.60;0.60;;;;;;;10.98;69.99;99729.19;5080923;28;20040;-69
2023/01/14 13:14:19;;;;;;;2.40;0.60;;;;;;;10.94;69.38;99710.06;5081063;28;20389;-67
2023/01/14 13:16:45;;;;;;;0.45;0.35;;;;;;;10.96;69.34;99717.88;5080497;28;20043;-67
2023/01/14 13:19:26;;;;;;;1.80;0.50;;;;;;;10.97;68.15;99711.53;5081377;28;20028;-68
2023/01/14 13:22:02;;;;;;;2.53;0.90;;;;;;;10.96;68.94;99705.38;5081294;28;20024;-68
2023/01/14 13:24:30;;;;;;;1.13;0.45;;;;;;;10.93;68.05;99704.94;5081040;28;20119;-68
2023/01/14 13:26:58;;;;;;;0.88;0.47;;;;;;;10.96;68.60;99710.72;5080780;28;20028;-68
2023/01/14 13:29:26;;;;;;;0.55;0.40;;;;;;;10.97;67.52;99708.88;5082572;28;20082;-68
2023/01/14 13:31:53;;;;;;;0.40;0.40;;;;;;;10.91;67.62;99702.44;5081542;28;20088;-68
2023/01/14 13:34:22;;;;;;;0.38;0.35;;;;;;;10.98;66.99;99695.34;5080753;28;20431;-68
2023/01/14 13:36:48;;;;;;;2.08;0.35;;;;;;;11.08;65.60;99692.38;5080636;28;20089;-68
2023/01/14 13:39:20;;;;;;;0.35;0.35;;;;;;;11.09;65.23;99691.38;5080993;28;20042;-67
2023/01/14 13:41:50;;;;;;;1.55;0.60;;;;;;;11.12;65.68;99673.16;5080370;28;20021;-68
2023/01/14 13:44:21;;;;;;;0.40;0.40;;;;;;;11.11;65.19;99662.69;5084778;28;20046;-69
2023/01/14 13:46:51;;;;;;;1.70;0.63;;;;;;;11.10;64.83;99664.53;5085157;28;20481;-69
2023/01/14 13:49:34;;;;;;;0.80;0.63;;;;;;;11.08;65.61;99661.22;5085509;28;20032;-67
2023/01/14 13:52:22;;;;;;;2.35;0.60;;;;;;;11.03;64.81;99639.66;5087980;28;20031;-66
2023/01/14 13:55:29;;;;;;;1.27;0.65;;;;;;;11.06;65.19;99655.25;5086602;28;20385;-66
2023/01/14 13:57:59;;;;;;;;;;;;;;;11.08;64.81;99657.72;5086159;28;20036;-67
2023/01/14 14:00:26;;;;;;;1.17;0.95;;;;;;;11.08;65.99;99663.91;5084755;28;19924;-67
2023/01/14 14:02:56;;;;;;;0.30;0.30;;;;;;;11.08;66.15;99671.91;5085704;28;20028;-66
2023/01/14 14:05:27;;;;;;;0.52;0.32;;;;;;;11.06;66.53;99665.91;5085896;28;20118;-66
2023/01/14 14:07:56;;;;;;;1.42;0.28;;;;;;;11.08;67.74;99652.38;5085364;28;20025;-66
2023/01/14 14:10:28;;;;;;;0.68;0.50;;;;;;;11.07;65.63;99648.06;5085760;28;20062;-66
2023/01/14 14:15:58;;;;;;;0.57;0.40;;;;;;;11.07;66.06;99630.25;5064727;28;20051;-59
2023/01/14 14:18:37;;;;;;;0.43;0.40;;;;;;;11.07;65.49;99619.56;5083344;28;20041;-60
2023/01/14 14:21:10;;;;;;;0.90;0.40;;;;;;;11.05;65.66;99616.28;5083281;28;20574;-61
2023/01/14 14:23:41;;;;;;;2.20;1.00;;;;;;;11.05;65.33;99604.81;5076371;28;20035;-58
2023/01/14 14:26:15;;;;;;;0.50;0.40;;;;;;;11.01;65.33;99607.00;5075846;28;20053;-60
2023/01/14 14:28:43;;;;;;;2.85;0.55;;;;;;;11.01;65.97;99607.00;5074758;28;20032;-61
2023/01/14 14:31:13;;;;;;;1.05;0.63;;;;;;;10.99;65.43;99594.91;5074300;28;20451;-61
2023/01/14 14:33:43;;;;;;;3.90;1.35;;;;;;;10.99;65.09;99595.72;5074370;28;20120;-61
2023/01/14 14:36:13;;;;;;;1.30;0.90;;;;;;;11.00;63.90;99597.38;5074549;28;20458;-61
2023/01/14 14:38:39;;;;;;;1.15;0.35;;;;;;;10.99;64.23;99606.38;5073962;28;20032;-62
2023/01/14 14:41:07;;;;;;;0.93;0.60;;;;;;;11.03;64.70;99606.84;5074292;28;20035;-60
2023/01/14 14:43:33;;;;;;;0.65;0.50;;;;;;;10.99;65.53;99606.38;5074491;28;20036;-64
2023/01/14 14:46:05;;;;;;;0.73;0.43;;;;;;;10.99;65.89;99609.06;5072804;28;20059;-62
2023/01/14 14:48:32;;;;;;;1.38;0.50;;;;;;;10.97;69.32;99612.94;5073847;28;20078;-62
2023/01/14 14:50:57;;;;;;;3.53;2.05;;;;;;;10.82;70.81;99605.84;5074071;28;20045;-63
2023/01/14 14:53:34;;;;;;;0.32;0.32;;;;;;;10.86;71.93;99607.09;5073515;28;20094;-61
2023/01/14 14:56:09;;;;;;;0.80;0.50;;;;;;;10.76;69.48;99605.78;5073901;28;20066;-60
2023/01/14 14:58:35;;;;;;;0.60;0.55;;;;;;;10.72;69.47;99615.16;5073763;28;20075;-65
2023/01/14 15:01:04;;;;;;;0.28;0.28;;;;;;;10.61;70.92;99613.78;5074044;28;20371;-63
2023/01/14 15:03:34;;;;;;;1.35;0.60;;;;;;;10.63;72.09;99616.25;5073820;28;20051;-64
2023/01/14 15:06:04;;;;;;;0.20;0.20;;;;;;;10.66;68.51;99610.56;5073853;28;20406;-66
2023/01/14 15:08:33;;;;;;;2.28;0.43;;;;;;;10.62;70.72;99603.97;5072174;28;20032;-67
2023/01/14 15:11:01;;;;;;;0.40;0.40;;;;;;;10.63;69.18;99616.25;5073549;28;20111;-67
2023/01/14 15:13:30;;;;;;;0.32;0.30;;;;;;;10.60;68.09;99615.63;5073584;28;20042;-67
2023/01/14 15:16:04;;;;;;;1.15;0.60;;;;;;;10.58;69.58;99601.69;5073550;28;20066;-67
2023/01/14 15:18:57;;;;;;;0.55;0.40;;;;;;;10.62;69.53;99598.63;5073410;28;20111;-67
2023/01/14 15:21:27;;;;;;;0.60;0.50;;;;;;;10.54;70.18;99591.59;5073483;28;20121;-67
2023/01/14 15:24:02;;;;;;;1.13;0.25;;;;;;;10.49;71.25;99589.50;5073435;28;20097;-67
2023/01/14 15:26:34;;;;;;;1.20;0.40;;;;;;;10.48;70.51;99579.03;5073238;28;20028;-67
2023/01/14 15:29:00;;;;;;;3.60;0.50;;;;;;;10.44;72.22;99575.13;5073276;28;20112;-66
2023/01/14 15:31:27;;;;;;;0.82;0.50;;;;;;;10.36;72.83;99573.38;5073366;28;20120;-67
2023/01/14 15:34:05;;;;;;;0.65;0.40;;;;;;;10.30;73.87;99558.16;5072141;28;20047;-67
2023/01/14 15:36:33;;;;;;;1.33;1.00;;;;;;;10.26;74.52;99564.88;5071937;28;20047;-66
2023/01/14 15:38:59;;;;;;;0.90;0.40;;;;;;;10.17;74.93;99547.31;5072858;28;20393;-67
2023/01/14 15:41:29;;;;;;;0.30;0.30;;;;;;;10.15;74.38;99549.34;5073205;28;20064;-66
2023/01/14 15:43:55;;;;;;;1.52;0.52;;;;;;;10.14;74.91;99537.06;5073164;28;20041;-67
2023/01/14 15:46:25;;;;;;;0.45;0.45;;;;;;;10.14;74.78;99526.44;5072972;28;20052;-67
2023/01/14 15:48:59;;;;;;;1.55;0.40;;;;;;;10.14;74.25;99519.25;5071519;28;20143;-66
2023/01/14 15:51:34;;;;;;;2.13;0.80;;;;;;;10.14;73.44;99529.09;5072909;28;20493;-67
2023/01/14 15:54:30;;;;;;;0.50;0.32;;;;;;;10.12;73.08;99529.28;5072944;28;20205;-67
2023/01/14 15:56:55;;;;;;;3.08;0.80;;;;;;;10.19;72.23;99524.84;5083094;28;20043;-67
2023/01/14 15:59:22;;;;;;;0.55;0.47;;;;;;;10.19;72.38;99526.69;5095310;28;20040;-68
2023/01/14 16:01:52;;;;;;;1.20;0.73;;;;;;;10.18;73.05;99517.06;5094581;28;20055;-68
2023/01/14 16:04:28;;;;;;;1.85;0.75;;;;;;;10.14;73.27;99521.94;5095618;28;20125;-67
2023/01/14 16:07:32;;;;;;;0.43;0.40;;;;;;;10.14;73.48;99511.28;5094962;28;20477;-67
2023/01/14 16:10:03;;;;;;;0.73;0.55;;;;;;;10.17;71.11;99505.59;5094752;28;20055;-68
2023/01/14 16:12:28;;;;;;;0.68;0.60;;;;;;;10.17;70.63;99494.09;5094157;28;20135;-68
2023/01/14 16:14:54;;;;;;;1.17;0.50;;;;;;;10.21;70.97;99490.06;5097315;28;20124;-67
2023/01/14 16:17:20;;;;;;;1.42;0.88;;;;;;;10.24;69.70;99481.75;5107834;28;20032;-68
2023/01/14 16:19:47;;;;;;;1.30;0.70;;;;;;;10.31;68.84;99475.47;5096615;28;20512;-67
2023/01/14 16:22:14;;;;;;;2.05;0.75;;;;;;;10.33;69.17;99475.28;5097084;28;20040;-68
2023/01/14 16:24:40;;;;;;;1.08;0.50;;;;;;;10.44;68.20;99476.59;5096343;28;20046;-68
2023/01/14 16:27:19;;;;;;;1.52;0.73;;;;;;;10.44;69.42;99474.78;5095301;28;20071;-67
2023/01/14 16:29:45;;;;;;;1.13;0.70;;;;;;;10.43;69.59;99470.47;5095899;28;20031;-67
2023/01/14 16:32:10;;;;;;;0.73;0.60;;;;;;;10.43;70.26;99462.47;5094712;28;20119;-68
2023/01/14 16:34:36;;;;;;;2.72;1.08;;;;;;;10.45;69.53;99455.09;5095745;28;20028;-67
2023/01/14 16:37:01;;;;;;;0.43;0.40;;;;;;;10.42;68.19;99444.00;5094137;28;20118;-67
2023/01/14 16:39:28;;;;;;;1.77;0.80;;;;;;;10.50;68.38;99436.72;5094473;28;20092;-67
2023/01/14 16:41:54;;;;;;;1.55;0.75;;;;;;;10.54;67.94;99448.63;5093609;28;20146;-65
2023/01/14 16:44:19;;;;;;;0.63;0.32;;;;;;;10.62;68.90;99449.50;5092792;28;20123;-68
2023/01/14 16:46:44;;;;;;;1.38;0.50;;;;;;;10.51;71.79;99445.53;5094463;28;20047;-67
2023/01/14 16:49:10;;;;;;;0.38;0.30;;;;;;;10.47;75.29;99447.75;5094720;28;20040;-66
2023/01/14 16:51:40;;;;;;;1.80;0.60;;;;;;;10.22;78.26;99441.94;5095511;28;20048;-72
2023/01/14 16:54:05;;;;;;;0.88;0.65;;;;;;;10.16;80.73;99448.03;5091726;28;20036;-69
2023/01/14 16:56:30;;;;;;;0.43;0.38;;;;;;;10.07;81.27;99449.19;5091808;28;20040;-69
2023/01/14 16:58:58;;;;;;;0.28;0.28;;;;;;;9.92;83.69;99440.44;5091594;28;20043;-69
2023/01/14 17:01:26;;;;;;;0.22;0.22;;;;;;;9.92;84.94;99449.25;5091764;28;20032;-69
2023/01/14 17:03:51;;;;;;;1.80;0.60;;;;;;;9.83;86.71;99429.06;5091787;28;20640;-68
2023/01/14 17:06:17;;;;;;;0.98;0.50;;;;;;;9.81;86.70;99424.97;5090441;28;20123;-69
2023/01/14 17:08:43;;;;;;;0.32;0.32;;;;;;;9.84;86.66;99420.06;5091575;28;20036;-69
2023/01/14 17:12:37;;;;;;;0.50;0.40;;;;;;;9.85;87.65;99412.94;5091833;28;20054;-68
2023/01/14 17:13:53;;;;;;;0.63;0.47;;;;;;;9.86;88.54;99406.59;5091581;28;20600;-69
2023/01/14 17:16:19;;;;;;;0.28;0.28;;;;;;;9.87;89.26;99409.06;5091912;28;20024;-70
2023/01/14 17:18:44;;;;;;;1.05;0.20;;;;;;;9.87;89.36;99411.72;5091360;28;20483;-69
2023/01/14 17:21:11;;;;;;;1.05;0.50;;;;;;;9.93;90.26;99408.31;5091425;28;20073;-70
2023/01/14 17:23:37;;;;;;;0.40;0.30;;;;;;;9.98;90.31;99413.09;5091487;28;20481;-70
2023/01/14 17:26:07;;;;;;;0.90;0.45;;;;;;;10.00;90.86;99405.72;5091429;28;20040;-69
2023/01/14 17:28:33;;;;;;;0.75;0.30;;;;;;;10.02;91.35;99414.34;5091312;28;20036;-70
2023/01/14 17:30:58;;;;;;;0.70;0.50;;;;;;;10.03;92.01;99415.97;5091419;28;20101;-70
2023/01/14 17:33:23;;;;;;;0.47;0.47;;;;;;;10.03;92.29;99410.66;5091578;28;20044;-69
2023/01/14 17:35:49;;;;;;;0.35;0.32;;;;;;;10.02;91.99;99404.50;5096271;28;20044;-70
2023/01/14 17:38:14;;;;;;;0.98;0.40;;;;;;;10.07;91.44;99404.75;5096629;28;20127;-70
2023/01/14 17:40:40;;;;;;;0.40;0.40;;;;;;;10.15;91.26;99397.66;5097177;28;20073;-69
2023/01/14 17:43:05;;;;;;;0.60;0.60;;;;;;;10.22;91.04;99393.22;5098903;28;20037;-70
2023/01/14 17:45:31;;;;;;;1.05;0.60;;;;;;;10.22;90.93;99398.53;5104262;28;20476;-70